createdAt,value
2022-11-17T00:02:25.399Z,98934.75
2022-11-17T00:04:53.667Z,98928.94
2022-11-17T00:07:23.364Z,98920.75
2022-11-17T00:09:51.380Z,98906.78
2022-11-17T00:12:36.762Z,98899.38
2022-11-17T00:15:04.918Z,98888.50
2022-11-17T00:17:34.157Z,98874.47
2022-11-17T00:20:19.238Z,98867.06
2022-11-17T00:22:47.277Z,98861.56
2022-11-17T00:25:15.188Z,98853.38
2022-11-17T00:27:43.009Z,98842.91
2022-11-17T00:30:31.592Z,98851.81
2022-11-17T00:33:20.744Z,98841.69
2022-11-17T00:35:53.463Z,98838.97
2022-11-17T00:38:21.742Z,98827.31
2022-11-17T00:40:49.540Z,98819.53
2022-11-17T00:43:19.012Z,98805.94
2022-11-17T00:45:47.129Z,98802.06
2022-11-17T00:48:16.707Z,98794.31
2022-11-17T00:50:44.900Z,98800.50
2022-11-17T00:53:12.690Z,98789.63
2022-11-17T00:55:40.655Z,98786.13
2022-11-17T00:58:08.830Z,98778.34
2022-11-17T01:00:36.657Z,98772.47
2022-11-17T01:03:04.888Z,98770.91
2022-11-17T01:05:35.514Z,98754.19
2022-11-17T01:08:03.478Z,98744.09
2022-11-17T01:10:31.277Z,98749.09
2022-11-17T01:12:59.142Z,98743.31
2022-11-17T01:15:26.958Z,98746.81
2022-11-17T01:17:54.849Z,98742.50
2022-11-17T01:20:22.827Z,98741.72
2022-11-17T01:22:52.012Z,98734.34
2022-11-17T01:25:19.945Z,98728.91
2022-11-17T01:27:49.140Z,98728.13
2022-11-17T01:30:18.496Z,98723.44
2022-11-17T01:32:46.368Z,98716.06
2022-11-17T01:35:14.579Z,98704.03
2022-11-17T01:37:42.412Z,98714.50
2022-11-17T01:40:14.115Z,98714.13
2022-11-17T01:42:42.159Z,98697.81
2022-11-17T01:45:19.814Z,98686.09
2022-11-17T01:47:50.876Z,98676.78
2022-11-17T01:50:28.169Z,98662.03
2022-11-17T01:52:59.707Z,98660.47
2022-11-17T01:55:35.730Z,98654.25
2022-11-17T01:58:07.288Z,98645.72
2022-11-17T02:00:35.689Z,98634.88
2022-11-17T02:03:07.247Z,98620.09
2022-11-17T02:05:43.689Z,98629.44
2022-11-17T02:08:12.995Z,98633.38
2022-11-17T02:10:48.575Z,98616.34
2022-11-17T02:13:20.002Z,98617.91
2022-11-17T02:15:48.052Z,98617.91
2022-11-17T02:18:17.829Z,98615.63
2022-11-17T02:20:55.532Z,98604.75
2022-11-17T02:23:48.105Z,98600.09
2022-11-17T02:29:18.129Z,98585.72
2022-11-17T02:31:55.387Z,98590.38
2022-11-17T02:34:31.291Z,98593.13
2022-11-17T02:37:05.712Z,98585.00
2022-11-17T02:39:39.743Z,98591.28
2022-11-17T02:42:11.470Z,98588.56
2022-11-17T02:44:43.261Z,98593.22
2022-11-17T02:47:16.255Z,98587.78
2022-11-17T02:49:49.849Z,98574.97
2022-11-17T02:52:20.228Z,98587.41
2022-11-17T02:54:48.277Z,98574.63
2022-11-17T02:57:29.290Z,98578.50
2022-11-17T03:00:02.394Z,98570.75
2022-11-17T03:02:56.335Z,98576.06
2022-11-17T03:05:31.099Z,98569.88
2022-11-17T03:08:10.112Z,98569.81
2022-11-17T03:10:49.804Z,98561.25
2022-11-17T03:13:22.807Z,98558.16
2022-11-17T03:15:56.678Z,98555.81
2022-11-17T03:18:31.397Z,98553.06
2022-11-17T03:21:07.437Z,98561.97
2022-11-17T03:23:41.468Z,98570.13
2022-11-17T03:26:13.031Z,98561.97
2022-11-17T03:28:43.950Z,98546.41
2022-11-17T03:31:16.327Z,98547.19
2022-11-17T03:33:49.751Z,98542.50
2022-11-17T03:36:21.278Z,98543.63
2022-11-17T03:39:04.200Z,98544.03
2022-11-17T03:41:34.912Z,98538.25
2022-11-17T03:44:05.440Z,98540.56
2022-11-17T03:46:37.865Z,98524.28
2022-11-17T03:49:14.548Z,98511.41
2022-11-17T03:51:42.610Z,98507.56
2022-11-17T03:54:10.979Z,98509.91
2022-11-17T03:56:46.682Z,98502.13
2022-11-17T03:59:19.328Z,98503.69
2022-11-17T04:01:48.762Z,98489.69
2022-11-17T04:04:17.292Z,98485.03
2022-11-17T04:06:45.091Z,98482.69
2022-11-17T04:09:13.262Z,98483.84
2022-11-17T04:11:58.881Z,98478.78
2022-11-17T04:14:44.046Z,98472.59
2022-11-17T04:17:13.573Z,98467.09
2022-11-17T04:19:41.473Z,98465.53
2022-11-17T04:22:09.428Z,98469.44
2022-11-17T04:24:37.190Z,98456.94
2022-11-17T04:27:22.530Z,98449.16
2022-11-17T04:29:50.360Z,98454.59
2022-11-17T04:32:19.656Z,98460.81
2022-11-17T04:34:48.331Z,98463.91
2022-11-17T04:37:18.523Z,98462.31
2022-11-17T04:39:47.105Z,98442.16
2022-11-17T04:42:13.955Z,98448.38
2022-11-17T04:44:41.986Z,98442.16
2022-11-17T04:47:09.859Z,98449.16
2022-11-17T04:49:39.065Z,98448.00
2022-11-17T04:52:06.967Z,98439.47
2022-11-17T04:54:35.043Z,98446.06
2022-11-17T04:57:03.019Z,98430.56
2022-11-17T04:59:31.329Z,98434.09
2022-11-17T05:02:05.349Z,98432.16
2022-11-17T05:04:51.204Z,98429.09
2022-11-17T05:07:20.617Z,98432.22
2022-11-17T05:09:48.472Z,98434.94
2022-11-17T05:12:33.936Z,98434.97
2022-11-17T05:15:02.013Z,98431.47
2022-11-17T05:17:28.761Z,98426.81
2022-11-17T05:19:57.494Z,98442.41
2022-11-17T05:22:44.074Z,98449.00
2022-11-17T05:25:11.876Z,98456.41
2022-11-17T05:27:40.059Z,98440.09
2022-11-17T05:30:09.832Z,98455.66
2022-11-17T05:32:37.761Z,98455.66
2022-11-17T05:35:06.309Z,98440.09
2022-11-17T05:37:35.572Z,98447.88
2022-11-17T05:40:03.578Z,98438.56
2022-11-17T05:42:31.811Z,98441.66
2022-11-17T05:44:59.765Z,98430.00
2022-11-17T05:47:27.720Z,98421.47
2022-11-17T05:49:55.480Z,98436.22
2022-11-17T05:52:23.259Z,98425.75
2022-11-17T05:54:52.398Z,98425.34
2022-11-17T05:57:27.605Z,98421.81
2022-11-17T05:59:59.613Z,98411.31
2022-11-17T06:02:33.024Z,98410.13
2022-11-17T06:05:00.850Z,98404.31
2022-11-17T06:07:28.774Z,98396.09
2022-11-17T06:09:58.232Z,98394.16
2022-11-17T06:12:26.024Z,98405.03
2022-11-17T06:14:54.261Z,98397.28
2022-11-17T06:17:25.380Z,98408.09
2022-11-17T06:19:56.881Z,98405.81
2022-11-17T06:22:26.894Z,98405.81
2022-11-17T06:24:57.870Z,98413.91
2022-11-17T06:27:26.676Z,98404.97
2022-11-17T06:29:56.130Z,98412.34
2022-11-17T06:32:24.103Z,98415.06
2022-11-17T06:34:56.008Z,98409.66
2022-11-17T06:37:25.172Z,98402.28
2022-11-17T06:39:53.340Z,98418.19
2022-11-17T06:42:42.952Z,98438.00
2022-11-17T06:45:11.463Z,98435.28
2022-11-17T06:47:39.846Z,98443.84
2022-11-17T06:50:08.498Z,98440.75
2022-11-17T06:52:36.431Z,98445.03
2022-11-17T06:55:04.366Z,98450.06
2022-11-17T06:57:33.802Z,98444.25
2022-11-17T07:00:01.722Z,98440.75
2022-11-17T07:02:32.246Z,98457.06
2022-11-17T07:05:00.071Z,98453.22
2022-11-17T07:07:27.999Z,98451.63
2022-11-17T07:09:56.089Z,98460.16
2022-11-17T07:12:24.476Z,98462.50
2022-11-17T07:14:54.272Z,98458.59
2022-11-17T07:17:22.155Z,98459.38
2022-11-17T07:19:50.019Z,98468.69
2022-11-17T07:22:17.946Z,98457.06
2022-11-17T07:24:46.018Z,98468.69
2022-11-17T07:27:13.981Z,98471.81
2022-11-17T07:29:41.874Z,98474.94
2022-11-17T07:32:14.184Z,98473.00
2022-11-17T07:34:42.630Z,98494.38
2022-11-17T07:37:10.566Z,98487.38
2022-11-17T07:39:38.415Z,98489.00
2022-11-17T07:42:06.425Z,98495.22
2022-11-17T07:44:34.741Z,98498.34
2022-11-17T07:47:03.245Z,98508.47
2022-11-17T07:49:32.979Z,98511.22
2022-11-17T07:52:01.849Z,98512.78
2022-11-17T07:54:29.792Z,98524.81
2022-11-17T07:56:57.807Z,98529.50
2022-11-17T07:59:25.802Z,98531.81
2022-11-17T08:01:53.742Z,98531.06
2022-11-17T08:04:21.869Z,98520.19
2022-11-17T08:06:51.211Z,98538.84
2022-11-17T08:09:19.014Z,98537.28
2022-11-17T08:11:46.874Z,98546.28
2022-11-17T08:14:15.291Z,98557.16
2022-11-17T08:16:43.144Z,98559.81
2022-11-17T08:19:12.078Z,98560.59
2022-11-17T08:21:41.161Z,98562.19
2022-11-17T08:24:10.688Z,98571.13
2022-11-17T08:26:38.958Z,98572.31
2022-11-17T08:29:07.198Z,98571.91
2022-11-17T08:31:35.159Z,98576.63
2022-11-17T08:34:03.183Z,98570.03
2022-11-17T08:36:31.284Z,98576.25
2022-11-17T08:38:59.371Z,98578.91
2022-11-17T08:41:28.698Z,98591.78
2022-11-17T08:43:56.532Z,98596.78
2022-11-17T08:46:25.787Z,98592.50
2022-11-17T08:48:57.116Z,98587.78
2022-11-17T08:51:25.445Z,98598.63
2022-11-17T08:53:53.556Z,98592.00
2022-11-17T08:56:21.701Z,98600.16
2022-11-17T08:58:50.991Z,98607.88
2022-11-17T09:01:19.453Z,98602.88
2022-11-17T09:03:48.964Z,98604.03
2022-11-17T09:06:18.176Z,98594.72
2022-11-17T09:08:47.403Z,98603.66
2022-11-17T09:11:16.657Z,98599.81
2022-11-17T09:13:45.816Z,98604.88
2022-11-17T09:16:17.215Z,98609.53
2022-11-17T09:18:45.623Z,98618.09
2022-11-17T09:21:16.356Z,98612.69
2022-11-17T09:23:44.785Z,98620.44
2022-11-17T09:26:15.623Z,98616.56
2022-11-17T09:28:44.188Z,98617.38
2022-11-17T09:31:14.231Z,98630.59
2022-11-17T09:33:44.392Z,98633.00
2022-11-17T09:36:13.422Z,98626.78
2022-11-17T09:38:42.418Z,98630.69
2022-11-17T09:41:27.250Z,98640.78
2022-11-17T09:44:09.292Z,98637.72
2022-11-17T09:46:51.946Z,98654.38
2022-11-17T09:49:35.163Z,98642.34
2022-11-17T09:52:11.875Z,98646.28
2022-11-17T09:54:46.592Z,98654.88
2022-11-17T09:57:22.962Z,98649.81
2022-11-17T10:00:05.943Z,98651.75
2022-11-17T10:02:34.169Z,98656.81
2022-11-17T10:05:03.782Z,98652.94
2022-11-17T10:07:34.098Z,98658.78
2022-11-17T10:10:04.444Z,98670.41
2022-11-17T10:12:38.888Z,98664.25
2022-11-17T10:15:24.669Z,98663.47
2022-11-17T10:17:53.460Z,98663.53
2022-11-17T10:20:23.268Z,98672.91
2022-11-17T10:22:53.359Z,98670.56
2022-11-17T10:25:24.857Z,98664.00
2022-11-17T10:27:54.553Z,98665.22
2022-11-17T10:30:24.182Z,98680.00
2022-11-17T10:32:53.779Z,98678.47
2022-11-17T10:35:24.501Z,98679.25
2022-11-17T10:37:58.242Z,98673.06
2022-11-17T10:40:28.254Z,98676.97
2022-11-17T10:43:03.545Z,98677.00
2022-11-17T10:45:32.467Z,98685.97
2022-11-17T10:48:11.956Z,98686.38
2022-11-17T10:50:53.357Z,98682.91
2022-11-17T10:53:28.531Z,98680.16
2022-11-17T10:56:03.748Z,98697.31
2022-11-17T10:58:33.481Z,98699.69
2022-11-17T11:01:03.622Z,98697.75
2022-11-17T11:03:33.342Z,98707.91
2022-11-17T11:06:06.470Z,98699.00
2022-11-17T11:08:51.968Z,98703.63
2022-11-17T11:11:35.925Z,98700.56
2022-11-17T11:14:13.879Z,98714.53
2022-11-17T11:16:47.781Z,98711.41
2022-11-17T11:19:18.397Z,98709.06
2022-11-17T11:22:04.445Z,98712.16
2022-11-17T11:24:40.386Z,98725.41
2022-11-17T11:27:24.881Z,98718.38
2022-11-17T11:30:02.249Z,98723.84
2022-11-17T11:32:42.017Z,98721.84
2022-11-17T11:35:55.568Z,98724.53
2022-11-17T11:38:47.931Z,98734.66
2022-11-17T11:41:28.890Z,98739.75
2022-11-17T11:44:14.615Z,98742.47
2022-11-17T11:46:50.543Z,98733.13
2022-11-17T11:49:30.997Z,98740.13
2022-11-17T11:51:59.171Z,98742.47
2022-11-17T11:54:40.133Z,98744.03
2022-11-17T11:57:12.785Z,98744.03
2022-11-17T11:59:49.387Z,98758.84
2022-11-17T12:02:29.084Z,98760.00
2022-11-17T12:05:07.664Z,98762.31
2022-11-17T12:07:45.214Z,98755.31
2022-11-17T12:10:21.520Z,98756.50
2022-11-17T12:12:49.920Z,98768.94
2022-11-17T12:15:35.961Z,98764.66
2022-11-17T12:18:07.477Z,98750.66
2022-11-17T12:20:53.207Z,98765.00
2022-11-17T12:23:30.160Z,98758.81
2022-11-17T12:26:01.801Z,98760.38
2022-11-17T12:28:34.223Z,98775.16
2022-11-17T12:31:09.518Z,98768.53
2022-11-17T12:34:23.781Z,98767.28
2022-11-17T12:37:17.884Z,98768.81
2022-11-17T12:40:08.106Z,98765.69
2022-11-17T12:42:38.179Z,98777.38
2022-11-17T12:45:13.803Z,98773.09
2022-11-17T12:47:46.165Z,98774.25
2022-11-17T12:50:41.552Z,98777.75
2022-11-17T12:53:53.787Z,98776.97
2022-11-17T12:56:51.307Z,98785.56
2022-11-17T12:59:55.820Z,98773.53
2022-11-17T13:02:39.770Z,98785.25
2022-11-17T13:05:15.794Z,98792.28
2022-11-17T13:07:43.915Z,98790.72
2022-11-17T13:10:25.849Z,98804.34
2022-11-17T13:13:12.198Z,98793.06
2022-11-17T13:15:43.989Z,98799.28
2022-11-17T13:18:17.568Z,98795.78
2022-11-17T13:20:49.103Z,98803.56
2022-11-17T13:23:23.153Z,98803.22
2022-11-17T13:25:51.871Z,98800.94
2022-11-17T13:28:30.394Z,98811.06
2022-11-17T13:31:00.567Z,98804.81
2022-11-17T13:33:29.677Z,98807.56
2022-11-17T13:36:09.439Z,98814.16
2022-11-17T13:38:37.531Z,98813.81
2022-11-17T13:41:07.375Z,98811.50
2022-11-17T13:43:40.831Z,98816.56
2022-11-17T13:46:10.081Z,98810.31
2022-11-17T13:48:39.564Z,98815.03
2022-11-17T13:51:25.915Z,98813.47
2022-11-17T13:53:57.104Z,98820.47
2022-11-17T13:56:28.123Z,98822.78
2022-11-17T13:58:56.903Z,98814.22
2022-11-17T14:01:29.717Z,98816.16
2022-11-17T14:04:20.118Z,98811.06
2022-11-17T14:06:59.510Z,98818.03
2022-11-17T14:09:29.541Z,98820.38
2022-11-17T14:11:58.708Z,98824.28
2022-11-17T14:14:34.185Z,98820.75
2022-11-17T14:17:13.198Z,98828.91
2022-11-17T14:19:42.117Z,98823.84
2022-11-17T14:22:31.491Z,98838.25
2022-11-17T14:25:00.215Z,98830.06
2022-11-17T14:27:39.921Z,98830.03
2022-11-17T14:30:11.464Z,98830.41
2022-11-17T14:32:40.617Z,98828.84
2022-11-17T14:35:13.100Z,98834.25
2022-11-17T14:37:41.540Z,98837.81
2022-11-17T14:40:14.481Z,98831.94
2022-11-17T14:42:42.445Z,98842.81
2022-11-17T14:45:14.303Z,98839.72
2022-11-17T14:47:44.008Z,98840.09
2022-11-17T14:50:14.259Z,98849.81
2022-11-17T14:52:43.247Z,98845.94
2022-11-17T14:55:11.757Z,98843.19
2022-11-17T14:57:40.251Z,98851.38
2022-11-17T15:00:14.576Z,98847.41
2022-11-17T15:02:47.222Z,98854.41
2022-11-17T15:05:15.285Z,98855.19
2022-11-17T15:07:43.389Z,98847.38
2022-11-17T15:10:11.995Z,98855.19
2022-11-17T15:12:40.222Z,98846.63
2022-11-17T15:15:09.254Z,98854.41
2022-11-17T15:17:37.225Z,98865.28
2022-11-17T15:20:08.116Z,98862.19
2022-11-17T15:22:36.081Z,98871.06
2022-11-17T15:25:04.193Z,98863.72
2022-11-17T15:27:32.487Z,98874.63
2022-11-17T15:30:00.272Z,98880.91
2022-11-17T15:32:28.563Z,98870.78
2022-11-17T15:34:56.441Z,98880.16
2022-11-17T15:37:26.048Z,98873.94
2022-11-17T15:39:54.034Z,98881.72
2022-11-17T15:42:22.191Z,98887.97
2022-11-17T15:44:50.158Z,98882.50
2022-11-17T15:47:18.142Z,98883.69
2022-11-17T15:49:46.742Z,98889.13
2022-11-17T15:52:14.779Z,98885.25
2022-11-17T15:54:44.290Z,98883.28
2022-11-17T15:57:12.108Z,98882.50
2022-11-17T15:59:40.011Z,98891.13
2022-11-17T16:02:10.217Z,98891.13
2022-11-17T16:04:38.092Z,98900.06
2022-11-17T16:07:06.237Z,98901.22
2022-11-17T16:09:35.534Z,98909.75
2022-11-17T16:12:05.289Z,98904.72
2022-11-17T16:14:33.130Z,98912.53
2022-11-17T16:17:01.053Z,98916.03
2022-11-17T16:19:30.765Z,98913.28
2022-11-17T16:21:59.052Z,98910.19
2022-11-17T16:24:27.070Z,98919.16
2022-11-17T16:26:54.931Z,98923.81
2022-11-17T16:29:24.855Z,98926.09
2022-11-17T16:31:52.902Z,98930.75
2022-11-17T16:34:22.010Z,98939.28
2022-11-17T16:36:49.860Z,98932.22
2022-11-17T16:39:18.664Z,98934.53
2022-11-17T16:41:47.400Z,98940.31
2022-11-17T16:44:17.184Z,98933.69
2022-11-17T16:46:48.001Z,98936.75
2022-11-17T16:49:18.264Z,98938.28
2022-11-17T16:51:49.322Z,98934.41
2022-11-17T16:54:18.106Z,98941.34
2022-11-17T16:56:46.297Z,98937.44
2022-11-17T16:59:14.845Z,98940.50
2022-11-17T17:01:43.063Z,98948.25
2022-11-17T17:04:13.256Z,98947.09
2022-11-17T17:06:42.698Z,98946.69
2022-11-17T17:09:12.037Z,98952.88
2022-11-17T17:11:40.249Z,98953.63
2022-11-17T17:14:10.246Z,98953.63
2022-11-17T17:16:39.029Z,98958.28
2022-11-17T17:19:08.995Z,98962.16
2022-11-17T17:21:39.803Z,98958.22
2022-11-17T17:24:09.102Z,98951.22
2022-11-17T17:26:37.932Z,98959.00
2022-11-17T17:29:07.214Z,98964.81
2022-11-17T17:31:37.764Z,98968.25
2022-11-17T17:34:06.926Z,98968.22
2022-11-17T17:36:36.566Z,98975.97
2022-11-17T17:39:06.881Z,98980.59
2022-11-17T17:41:38.945Z,98975.91
2022-11-17T17:44:09.051Z,98971.56
2022-11-17T17:46:38.422Z,98974.22
2022-11-17T17:49:06.802Z,98978.09
2022-11-17T17:51:40.060Z,98978.44
2022-11-17T17:54:14.561Z,98980.31
2022-11-17T17:56:42.492Z,98982.19
2022-11-17T17:59:10.367Z,98987.22
2022-11-17T18:01:41.155Z,98993.81
2022-11-17T18:04:15.359Z,98994.97
2022-11-17T18:06:46.152Z,98993.41
2022-11-17T18:09:19.107Z,99003.81
2022-11-17T18:11:49.836Z,99011.91
2022-11-17T18:14:20.554Z,99008.00
2022-11-17T18:16:48.591Z,99006.81
2022-11-17T18:19:18.257Z,99019.63
2022-11-17T18:21:46.456Z,99014.13
2022-11-17T18:24:15.700Z,99010.19
2022-11-17T18:26:43.805Z,99020.28
2022-11-17T18:29:16.419Z,99020.28
2022-11-17T18:31:46.720Z,99019.56
2022-11-17T18:34:17.250Z,99020.41
2022-11-17T18:36:45.092Z,99025.88
2022-11-17T18:39:13.232Z,99029.38
2022-11-17T18:41:42.612Z,99025.50
2022-11-17T18:44:14.031Z,99022.78
2022-11-17T18:46:42.483Z,99029.06
2022-11-17T18:49:10.865Z,99043.06
2022-11-17T18:51:39.175Z,99038.06
2022-11-17T18:54:08.046Z,99038.50
2022-11-17T18:56:37.433Z,99033.03
2022-11-17T18:59:11.554Z,99041.63
2022-11-17T19:01:40.670Z,99046.66
2022-11-17T19:04:08.721Z,99051.69
2022-11-17T19:06:37.342Z,99047.81
2022-11-17T19:09:06.076Z,99054.81
2022-11-17T19:11:34.682Z,99055.63
2022-11-17T19:14:04.303Z,99059.56
2022-11-17T19:16:42.638Z,99058.78
2022-11-17T19:19:13.361Z,99067.72
2022-11-17T19:21:41.697Z,99066.50
2022-11-17T19:24:10.314Z,99066.09
2022-11-17T19:26:40.943Z,99070.34
2022-11-17T19:29:16.729Z,99073.44
2022-11-17T19:31:47.072Z,99083.53
2022-11-17T19:34:15.270Z,99092.03
2022-11-17T19:36:44.508Z,99088.13
2022-11-17T19:39:13.978Z,99096.63
2022-11-17T19:41:42.489Z,99099.72
2022-11-17T19:44:10.667Z,99102.78
2022-11-17T19:46:39.503Z,99113.66
2022-11-17T19:49:09.132Z,99109.75
2022-11-17T19:51:38.112Z,99117.50
2022-11-17T19:54:08.025Z,99112.41
2022-11-17T19:56:36.617Z,99120.94
2022-11-17T19:59:04.898Z,99127.50
2022-11-17T20:01:33.683Z,99120.09
2022-11-17T20:04:02.614Z,99122.03
2022-11-17T20:06:37.071Z,99133.63
2022-11-17T20:09:09.082Z,99137.91
2022-11-17T20:11:37.436Z,99143.72
2022-11-17T20:14:05.481Z,99139.78
2022-11-17T20:16:34.007Z,99144.38
2022-11-17T20:19:02.865Z,99143.94
2022-11-17T20:21:33.621Z,99145.03
2022-11-17T20:24:02.084Z,99152.34
2022-11-17T20:26:31.828Z,99152.69
2022-11-17T20:29:00.105Z,99161.19
2022-11-17T20:31:30.030Z,99147.19
2022-11-17T20:34:00.589Z,99162.72
2022-11-17T20:36:29.829Z,99157.97
2022-11-17T20:39:01.533Z,99155.59
2022-11-17T20:41:29.933Z,99159.47
2022-11-17T20:43:59.700Z,99162.13
2022-11-17T20:46:28.279Z,99168.28
2022-11-17T20:48:56.193Z,99164.00
2022-11-17T20:51:25.518Z,99164.72
2022-11-17T20:53:54.034Z,99181.03
2022-11-17T20:56:23.312Z,99188.72
2022-11-17T20:58:51.191Z,99185.59
2022-11-17T21:01:21.206Z,99190.59
2022-11-17T21:03:49.870Z,99189.38
2022-11-17T21:06:18.395Z,99191.66
2022-11-17T21:08:47.387Z,99198.59
2022-11-17T21:11:37.897Z,99200.88
2022-11-17T21:14:09.120Z,99196.16
2022-11-17T21:16:38.699Z,99199.16
2022-11-17T21:19:07.244Z,99202.59
2022-11-17T21:21:35.364Z,99202.19
2022-11-17T21:24:03.414Z,99204.44
2022-11-17T21:26:31.503Z,99209.09
2022-11-17T21:29:16.815Z,99210.25
2022-11-17T21:31:46.265Z,99213.69
2022-11-17T21:34:17.721Z,99221.81
2022-11-17T21:36:45.645Z,99225.31
2022-11-17T21:39:18.657Z,99224.19
2022-11-17T21:41:47.108Z,99219.44
2022-11-17T21:44:15.291Z,99233.84
2022-11-17T21:46:43.160Z,99227.59
2022-11-17T21:49:12.384Z,99231.44
2022-11-17T21:51:40.540Z,99234.88
2022-11-17T21:54:10.499Z,99236.72
2022-11-17T21:56:38.721Z,99240.59
2022-11-17T21:59:10.860Z,99242.88
2022-11-17T22:01:39.636Z,99236.22
2022-11-17T22:04:07.621Z,99245.84
2022-11-17T22:06:38.766Z,99240.00
2022-11-17T22:09:06.740Z,99234.06
2022-11-17T22:11:37.949Z,99245.69
2022-11-17T22:14:08.507Z,99247.56
2022-11-17T22:16:38.130Z,99240.88
2022-11-17T22:19:06.637Z,99243.53
2022-11-17T22:21:36.327Z,99240.81
2022-11-17T22:24:07.009Z,99248.50
2022-11-17T22:26:38.156Z,99251.94
2022-11-17T22:29:07.968Z,99254.56
2022-11-17T22:31:35.836Z,99247.91
2022-11-17T22:34:03.875Z,99249.06
2022-11-17T22:36:32.360Z,99251.34
2022-11-17T22:39:00.326Z,99262.88
2022-11-17T22:41:30.121Z,99270.94
2022-11-17T22:43:59.050Z,99269.69
2022-11-17T22:46:29.074Z,99271.97
2022-11-17T22:48:57.531Z,99272.69
2022-11-17T22:51:43.439Z,99264.91
2022-11-17T22:54:11.724Z,99281.09
2022-11-17T22:56:41.083Z,99284.94
2022-11-17T22:59:09.333Z,99279.09
2022-11-17T23:01:37.253Z,99288.78
2022-11-17T23:04:05.618Z,99284.94
2022-11-17T23:06:33.559Z,99294.22
2022-11-17T23:09:01.564Z,99301.22
2022-11-17T23:11:37.133Z,99295.78
2022-11-17T23:14:08.185Z,99296.94
2022-11-17T23:16:37.585Z,99299.63
2022-11-17T23:19:06.143Z,99301.22
2022-11-17T23:21:34.257Z,99292.66
2022-11-17T23:24:02.206Z,99296.47
2022-11-17T23:26:30.257Z,99299.19
2022-11-17T23:28:58.467Z,99305.75
2022-11-17T23:31:28.668Z,99307.31
2022-11-17T23:33:56.753Z,99303.50
2022-11-17T23:36:25.193Z,99301.22
2022-11-17T23:38:53.965Z,99308.22
2022-11-17T23:41:22.797Z,99306.63
2022-11-17T23:43:51.883Z,99312.06
2022-11-17T23:46:21.928Z,99298.50
2022-11-17T23:48:51.855Z,99308.22
2022-11-17T23:51:22.007Z,99315.22
2022-11-17T23:53:50.163Z,99316.78
2022-11-17T23:56:20.570Z,99314.53
2022-11-17T23:58:48.838Z,99316.88
